Time;durP1;ratioP1;P1;durP2;ratioP2;P2;SDS_P1;SDS_P2;PMS_P1;PMS_P2;Temp;Humidity;BMP_temperature;BMP_pressure;BME280_temperature;BME280_humidity;BME280_pressure;Samples;Min_cycle;Max_cycle;Signal;HPM_P1;HPM_P2
2020/12/17 00:00:59;;;;;;;;;;;;;;;;;;5014700;28;19905;-67
2020/12/17 00:03:25;;;;;;;;;;;;;;;;;;5014374;28;19913;-67
2020/12/17 00:05:51;;;;;;;;;;;;;;;;;;5014460;28;19906;-67
2020/12/17 00:08:18;;;;;;;;;;;;;;;;;;5013276;28;19906;-66
2020/12/17 00:10:44;;;;;;;;;;;;;;;;;;5014656;28;20444;-66
2020/12/17 00:13:10;;;;;;;;;;;;;;;;;;5014351;28;19964;-67
2020/12/17 00:15:35;;;;;;;;;;;;;;;;;;5014431;28;19996;-66
2020/12/17 00:18:01;;;;;;;;;;;;;;;;;;5014351;28;19959;-67
2020/12/17 00:20:27;;;;;;;;;;;;;;;;;;5013034;28;20392;-65
2020/12/17 00:22:53;;;;;;;;;;;;;;;;;;5012643;28;20354;-67
2020/12/17 00:25:19;;;;;;;;;;;;;;;;;;5014055;28;19914;-66
2020/12/17 00:27:45;;;;;;;;;;;;;;;;;;5013992;28;19908;-66
2020/12/17 00:30:11;;;;;;;;;;;;;;;;;;5014068;28;19905;-66
2020/12/17 00:32:37;;;;;;;;;;;;;;;;;;5014023;28;19912;-66
2020/12/17 00:35:03;;;;;;;;;;;;;;;;;;5013919;28;19905;-67
2020/12/17 00:37:29;;;;;;;;;;;;;;;;;;5012686;28;19927;-67
2020/12/17 00:39:55;;;;;;;;;;;;;;;;;;5012716;28;20337;-67
2020/12/17 00:42:21;;;;;;;;;;;;;;;;;;5013714;28;19906;-67
2020/12/17 00:44:47;;;;;;;;;;;;;;;;;;5013919;28;19961;-67
2020/12/17 00:47:13;;;;;;;;;;;;;;;;;;5013779;28;19912;-67
2020/12/17 00:49:38;;;;;;;;;;;;;;;;;;5013865;28;20399;-67
2020/12/17 00:52:04;;;;;;;;;;;;;;;;;;5013737;28;19944;-65
2020/12/17 00:54:30;;;;;;;;;;;;;;;;;;5013757;28;19952;-65
2020/12/17 00:56:56;;;;;;;;;;;;;;;;;;5013541;28;19906;-65
2020/12/17 00:59:22;;;;;;;;;;;;;;;;;;5013573;28;19916;-68
2020/12/17 01:01:48;;;;;;;;;;;;;;;;;;5013483;28;19912;-65
2020/12/17 01:04:14;;;;;;;;;;;;;;;;;;5013437;28;20274;-64
2020/12/17 01:06:40;;;;;;;;;;;;;;;;;;5013636;28;19910;-66
2020/12/17 01:09:06;;;;;;;;;;;;;;;;;;5012063;28;19905;-67
2020/12/17 01:11:32;;;;;;;;;;;;;;;;;;5013258;28;20358;-67
2020/12/17 01:13:58;;;;;;;;;;;;;;;;;;5013856;28;19923;-68
2020/12/17 01:16:24;;;;;;;;;;;;;;;;;;5027898;28;20265;-67
2020/12/17 01:18:50;;;;;;;;;;;;;;;;;;5014410;28;19905;-67
2020/12/17 01:21:16;;;;;;;;;;;;;;;;;;5013684;28;19927;-67
2020/12/17 01:23:42;;;;;;;;;;;;;;;;;;5013165;28;20380;-67
2020/12/17 01:26:11;;;;;;;;;;;;;;;;;;5013000;28;19928;-64
2020/12/17 01:28:37;;;;;;;;;;;;;;;;;;5013249;28;19975;-67
2020/12/17 01:31:02;;;;;;;;;;;;;;;;;;5013161;28;20664;-69
2020/12/17 01:33:28;;;;;;;;;;;;;;;;;;5012190;28;19909;-67
2020/12/17 01:35:54;;;;;;;;;;;;;;;;;;5012987;28;19977;-67
2020/12/17 01:38:20;;;;;;;;;;;;;;;;;;5012929;28;19905;-68
2020/12/17 01:40:46;;;;;;;;;;;;;;;;;;5013049;28;19905;-67
2020/12/17 01:43:12;;;;;;;;;;;;;;;;;;5011603;28;20011;-68
2020/12/17 01:45:38;;;;;;;;;;;;;;;;;;5012983;28;19913;-67
2020/12/17 01:48:04;;;;;;;;;;;;;;;;;;5012935;28;19975;-66
2020/12/17 01:50:30;;;;;;;;;;;;;;;;;;5011676;28;19940;-66
2020/12/17 01:52:57;;;;;;;;;;;;;;;;;;5012933;28;19988;-66
2020/12/17 01:55:23;;;;;;;;;;;;;;;;;;5012961;28;19905;-68
2020/12/17 01:57:49;;;;;;;;;;;;;;;;;;5012886;28;19956;-67
2020/12/17 02:00:15;;;;;;;;;;;;;;;;;;5011612;28;19909;-67
2020/12/17 02:02:41;;;;;;;;;;;;;;;;;;5012734;28;20310;-67
2020/12/17 02:05:07;;;;;;;;;;;;;;;;;;5012673;28;19994;-67
2020/12/17 02:07:33;;;;;;;;;;;;;;;;;;5012762;28;19941;-67
2020/12/17 02:09:59;;;;;;;;;;;;;;;;;;5012658;28;19905;-68
2020/12/17 02:12:25;;;;;;;;;;;;;;;;;;5011514;28;20273;-67
2020/12/17 02:14:51;;;;;;;;;;;;;;;;;;5012655;28;19905;-67
2020/12/17 02:17:17;;;;;;;;;;;;;;;;;;5012605;28;19912;-65
2020/12/17 02:19:43;;;;;;;;;;;;;;;;;;5012649;28;19991;-66
2020/12/17 02:22:09;;;;;;;;;;;;;;;;;;5012635;28;20389;-67
2020/12/17 02:24:35;;;;;;;;;;;;;;;;;;5012446;28;19957;-63
2020/12/17 02:27:01;;;;;;;;;;;;;;;;;;5012266;28;20251;-66
2020/12/17 02:29:27;;;;;;;;;;;;;;;;;;5012294;28;19992;-66
2020/12/17 02:31:53;;;;;;;;;;;;;;;;;;5012934;28;19948;-65
2020/12/17 02:34:19;;;;;;;;;;;;;;;;;;5013211;28;19901;-64
2020/12/17 02:36:44;;;;;;;;;;;;;;;;;;5011372;28;19906;-66
2020/12/17 02:39:10;;;;;;;;;;;;;;;;;;5012369;28;19916;-65
2020/12/17 02:41:36;;;;;;;;;;;;;;;;;;5012415;28;19901;-67
2020/12/17 02:44:02;;;;;;;;;;;;;;;;;;5012209;28;20381;-66
2020/12/17 02:46:28;;;;;;;;;;;;;;;;;;5015358;28;19909;-65
2020/12/17 02:48:54;;;;;;;;;;;;;;;;;;5014634;28;19906;-66
2020/12/17 02:51:20;;;;;;;;;;;;;;;;;;5014538;28;20346;-65
2020/12/17 02:53:46;;;;;;;;;;;;;;;;;;5015880;28;19909;-66
2020/12/17 02:56:12;;;;;;;;;;;;;;;;;;5015705;28;19913;-66
2020/12/17 02:58:38;;;;;;;;;;;;;;;;;;5014454;28;20000;-66
2020/12/17 03:01:04;;;;;;;;;;;;;;;;;;5015639;28;20324;-66
2020/12/17 03:03:30;;;;;;;;;;;;;;;;;;5015648;28;19917;-66
2020/12/17 03:05:56;;;;;;;;;;;;;;;;;;5015518;28;19988;-66
2020/12/17 03:08:22;;;;;;;;;;;;;;;;;;5015555;28;20005;-66
2020/12/17 03:10:48;;;;;;;;;;;;;;;;;;5015576;28;20344;-66
2020/12/17 03:13:14;;;;;;;;;;;;;;;;;;5014054;28;20031;-66
2020/12/17 03:15:40;;;;;;;;;;;;;;;;;;5015468;28;19913;-66
2020/12/17 03:18:06;;;;;;;;;;;;;;;;;;5015401;28;19924;-65
2020/12/17 03:20:32;;;;;;;;;;;;;;;;;;5015406;28;19906;-65
2020/12/17 03:22:58;;;;;;;;;;;;;;;;;;5015449;28;19916;-65
2020/12/17 03:25:24;;;;;;;;;;;;;;;;;;5015381;28;19987;-66
2020/12/17 03:27:50;;;;;;;;;;;;;;;;;;5015378;28;19952;-65
2020/12/17 03:30:15;;;;;;;;;;;;;;;;;;5015162;28;19912;-66
2020/12/17 03:32:41;;;;;;;;;;;;;;;;;;5015129;28;19916;-65
2020/12/17 03:35:07;;;;;;;;;;;;;;;;;;5015282;28;19905;-65
2020/12/17 03:37:33;;;;;;;;;;;;;;;;;;5015042;28;20047;-65
2020/12/17 03:39:59;;;;;;;;;;;;;;;;;;5013851;28;19940;-66
2020/12/17 03:42:25;;;;;;;;;;;;;;;;;;5015062;28;20434;-66
2020/12/17 03:44:51;;;;;;;;;;;;;;;;;;5015036;28;19969;-66
2020/12/17 03:47:17;;;;;;;;;;;;;;;;;;5015075;28;19951;-65
2020/12/17 03:49:43;;;;;;;;;;;;;;;;;;5016386;28;19910;-66
2020/12/17 03:52:10;;;;;;;;;;;;;;;;;;5015135;28;19976;-66
2020/12/17 03:54:36;;;;;;;;;;;;;;;;;;5013389;28;20004;-66
2020/12/17 03:57:02;;;;;;;;;;;;;;;;;;5013604;28;19960;-66
2020/12/17 03:59:28;;;;;;;;;;;;;;;;;;5014649;28;19905;-66
2020/12/17 04:01:54;;;;;;;;;;;;;;;;;;5014668;28;19979;-66
2020/12/17 04:04:20;;;;;;;;;;;;;;;;;;5013218;28;19937;-65
2020/12/17 04:06:46;;;;;;;;;;;;;;;;;;5014455;28;20284;-65
2020/12/17 04:09:13;;;;;;;;;;;;;;;;;;5014459;28;20358;-66
2020/12/17 04:11:39;;;;;;;;;;;;;;;;;;5014393;28;19906;-65
2020/12/17 04:14:05;;;;;;;;;;;;;;;;;;5014319;28;19916;-65
2020/12/17 04:16:31;;;;;;;;;;;;;;;;;;5014447;28;19909;-66
2020/12/17 04:18:57;;;;;;;;;;;;;;;;;;5014228;28;19959;-66
2020/12/17 04:21:23;;;;;;;;;;;;;;;;;;5013039;28;19906;-67
2020/12/17 04:23:48;;;;;;;;;;;;;;;;;;5014107;28;19963;-65
2020/12/17 04:26:14;;;;;;;;;;;;;;;;;;5014309;28;19916;-66
2020/12/17 04:28:40;;;;;;;;;;;;;;;;;;5013997;28;20469;-66
2020/12/17 04:31:06;;;;;;;;;;;;;;;;;;5014102;28;19905;-66
2020/12/17 04:33:32;;;;;;;;;;;;;;;;;;5014150;28;19906;-66
2020/12/17 04:35:58;;;;;;;;;;;;;;;;;;5013880;28;19905;-66
2020/12/17 04:38:24;;;;;;;;;;;;;;;;;;5013898;28;19905;-66
2020/12/17 04:40:50;;;;;;;;;;;;;;;;;;5012573;28;19901;-67
2020/12/17 04:43:16;;;;;;;;;;;;;;;;;;5013869;28;20357;-67
2020/12/17 04:45:42;;;;;;;;;;;;;;;;;;5013866;28;20270;-67
2020/12/17 04:48:08;;;;;;;;;;;;;;;;;;5013725;28;20274;-67
2020/12/17 04:50:34;;;;;;;;;;;;;;;;;;5012412;28;19905;-66
2020/12/17 04:53:00;;;;;;;;;;;;;;;;;;5013664;28;20318;-66
2020/12/17 04:55:25;;;;;;;;;;;;;;;;;;5012788;28;19909;-66
2020/12/17 04:57:52;;;;;;;;;;;;;;;;;;5013581;28;19905;-66
2020/12/17 05:00:18;;;;;;;;;;;;;;;;;;5013425;28;19994;-67
2020/12/17 05:02:44;;;;;;;;;;;;;;;;;;5013568;28;20358;-67
2020/12/17 05:05:10;;;;;;;;;;;;;;;;;;5021270;28;19909;-67
2020/12/17 05:07:36;;;;;;;;;;;;;;;;;;5021257;28;19905;-67
2020/12/17 05:10:02;;;;;;;;;;;;;;;;;;5012288;28;19992;-67
2020/12/17 05:12:28;;;;;;;;;;;;;;;;;;5013099;28;20013;-67
2020/12/17 05:14:54;;;;;;;;;;;;;;;;;;5012492;28;20362;-68
2020/12/17 05:17:20;;;;;;;;;;;;;;;;;;5013916;28;19905;-67
2020/12/17 05:19:46;;;;;;;;;;;;;;;;;;5013442;28;20390;-67
2020/12/17 05:22:15;;;;;;;;;;;;;;;;;;5013705;28;19951;-67
2020/12/17 05:24:41;;;;;;;;;;;;;;;;;;5013194;28;19913;-66
2020/12/17 05:27:06;;;;;;;;;;;;;;;;;;5013317;28;19905;-67
2020/12/17 05:29:32;;;;;;;;;;;;;;;;;;5013181;28;20285;-67
2020/12/17 05:31:58;;;;;;;;;;;;;;;;;;5013022;28;19909;-68
2020/12/17 05:34:24;;;;;;;;;;;;;;;;;;5013123;28;20000;-66
2020/12/17 05:36:50;;;;;;;;;;;;;;;;;;5012925;28;19941;-67
2020/12/17 05:39:16;;;;;;;;;;;;;;;;;;5011718;28;19977;-68
2020/12/17 05:41:42;;;;;;;;;;;;;;;;;;5012950;28;19905;-67
2020/12/17 05:44:08;;;;;;;;;;;;;;;;;;5011584;28;19920;-68
2020/12/17 05:46:34;;;;;;;;;;;;;;;;;;5012916;28;19912;-67
2020/12/17 05:49:00;;;;;;;;;;;;;;;;;;5012822;28;19913;-67
2020/12/17 05:51:26;;;;;;;;;;;;;;;;;;5012761;28;20369;-67
2020/12/17 05:53:52;;;;;;;;;;;;;;;;;;5012810;28;19906;-66
2020/12/17 05:56:18;;;;;;;;;;;;;;;;;;5012804;28;19909;-67
2020/12/17 05:58:47;;;;;;;;;;;;;;;;;;5012747;28;19905;-67
2020/12/17 06:01:13;;;;;;;;;;;;;;;;;;5012768;28;20266;-67
2020/12/17 06:03:39;;;;;;;;;;;;;;;;;;5012723;28;19909;-67
2020/12/17 06:06:04;;;;;;;;;;;;;;;;;;5012725;28;20341;-68
2020/12/17 06:08:30;;;;;;;;;;;;;;;;;;5012890;28;19997;-67
2020/12/17 06:10:56;;;;;;;;;;;;;;;;;;5012632;28;20447;-68
2020/12/17 06:13:22;;;;;;;;;;;;;;;;;;5012373;28;19996;-65
2020/12/17 06:15:48;;;;;;;;;;;;;;;;;;5012521;28;19944;-67
2020/12/17 06:18:14;;;;;;;;;;;;;;;;;;5012461;28;19993;-67
2020/12/17 06:20:40;;;;;;;;;;;;;;;;;;5014913;28;20358;-67
2020/12/17 06:23:06;;;;;;;;;;;;;;;;;;5017430;28;19916;-66
2020/12/17 06:25:32;;;;;;;;;;;;;;;;;;5016580;28;19941;-67
2020/12/17 06:27:58;;;;;;;;;;;;;;;;;;5016516;28;19960;-65
2020/12/17 06:30:24;;;;;;;;;;;;;;;;;;5015007;28;19906;-67
2020/12/17 06:32:50;;;;;;;;;;;;;;;;;;5016354;28;20492;-66
2020/12/17 06:35:16;;;;;;;;;;;;;;;;;;5016310;28;19906;-66
2020/12/17 06:37:42;;;;;;;;;;;;;;;;;;5016191;28;20829;-68
2020/12/17 06:40:08;;;;;;;;;;;;;;;;;;5015665;28;19906;-67
2020/12/17 06:42:34;;;;;;;;;;;;;;;;;;5014328;28;19909;-69
2020/12/17 06:44:59;;;;;;;;;;;;;;;;;;5016150;28;19968;-69
2020/12/17 06:47:25;;;;;;;;;;;;;;;;;;5016087;28;19905;-68
2020/12/17 06:49:51;;;;;;;;;;;;;;;;;;5016231;28;19913;-69
2020/12/17 06:52:17;;;;;;;;;;;;;;;;;;5015771;28;19905;-67
2020/12/17 06:54:43;;;;;;;;;;;;;;;;;;5016117;28;20282;-69
2020/12/17 06:57:09;;;;;;;;;;;;;;;;;;5015929;28;20281;-71
2020/12/17 06:59:35;;;;;;;;;;;;;;;;;;5015093;28;20341;-68
2020/12/17 07:02:01;;;;;;;;;;;;;;;;;;5014159;28;19912;-69
2020/12/17 07:04:27;;;;;;;;;;;;;;;;;;5015212;28;19913;-71
2020/12/17 07:06:53;;;;;;;;;;;;;;;;;;5015502;28;21272;-71
2020/12/17 07:09:19;;;;;;;;;;;;;;;;;;5015658;28;20273;-68
2020/12/17 07:11:45;;;;;;;;;;;;;;;;;;5015549;28;19960;-69
2020/12/17 07:14:11;;;;;;;;;;;;;;;;;;5015578;28;19971;-67
2020/12/17 07:16:37;;;;;;;;;;;;;;;;;;5015455;28;20312;-67
2020/12/17 07:19:03;;;;;;;;;;;;;;;;;;5015384;28;19905;-67
2020/12/17 07:21:29;;;;;;;;;;;;;;;;;;5015401;28;20285;-69
2020/12/17 07:23:55;;;;;;;;;;;;;;;;;;5015211;28;19917;-70
2020/12/17 07:26:21;;;;;;;;;;;;;;;;;;5011767;28;20063;-69
2020/12/17 07:28:47;;;;;;;;;;;;;;;;;;5013481;28;20381;-69
2020/12/17 07:31:13;;;;;;;;;;;;;;;;;;5013200;28;20004;-69
2020/12/17 07:33:39;;;;;;;;;;;;;;;;;;5013414;28;20000;-68
2020/12/17 07:36:05;;;;;;;;;;;;;;;;;;5012166;28;20111;-69
2020/12/17 07:38:31;;;;;;;;;;;;;;;;;;5014901;28;19909;-70
2020/12/17 07:40:57;;;;;;;;;;;;;;;;;;5013573;28;19909;-69
2020/12/17 07:43:24;;;;;;;;;;;;;;;;;;5011526;28;19932;-70
2020/12/17 07:45:50;;;;;;;;;;;;;;;;;;5011593;28;20361;-72
2020/12/17 07:48:16;;;;;;;;;;;;;;;;;;5012906;28;19902;-70
2020/12/17 07:50:42;;;;;;;;;;;;;;;;;;5014628;28;19988;-69
2020/12/17 07:53:08;;;;;;;;;;;;;;;;;;5012791;28;19909;-69
2020/12/17 07:55:34;;;;;;;;;;;;;;;;;;5013956;28;19901;-70
2020/12/17 07:58:00;;;;;;;;;;;;;;;;;;5014679;28;19905;-69
2020/12/17 08:00:27;;;;;;;;;;;;;;;;;;5014725;28;19908;-69
2020/12/17 08:02:53;;;;;;;;;;;;;;;;;;5014731;28;20342;-69
2020/12/17 08:05:19;;;;;;;;;;;;;;;;;;5014751;28;19952;-69
2020/12/17 08:07:45;;;;;;;;;;;;;;;;;;5014579;28;19906;-69
2020/12/17 08:10:11;;;;;;;;;;;;;;;;;;5014350;28;19993;-69
2020/12/17 08:12:37;;;;;;;;;;;;;;;;;;5014373;28;19941;-69
2020/12/17 08:15:02;;;;;;;;;;;;;;;;;;5014283;28;19952;-69
2020/12/17 08:17:28;;;;;;;;;;;;;;;;;;5012985;28;20008;-70
2020/12/17 08:19:54;;;;;;;;;;;;;;;;;;5014559;28;20048;-70
2020/12/17 08:22:21;;;;;;;;;;;;;;;;;;5014315;28;19948;-70
2020/12/17 08:24:47;;;;;;;;;;;;;;;;;;5014175;28;19913;-71
2020/12/17 08:27:13;;;;;;;;;;;;;;;;;;5014340;28;20350;-70
2020/12/17 08:29:38;;;;;;;;;;;;;;;;;;5014330;28;19912;-70
2020/12/17 08:32:04;;;;;;;;;;;;;;;;;;5013036;28;19905;-70
2020/12/17 08:34:30;;;;;;;;;;;;;;;;;;5013710;28;19913;-70
2020/12/17 08:36:56;;;;;;;;;;;;;;;;;;5014125;28;20305;-70
2020/12/17 08:39:22;;;;;;;;;;;;;;;;;;5013759;28;19921;-67
2020/12/17 08:41:48;;;;;;;;;;;;;;;;;;5012506;28;19906;-65
2020/12/17 08:44:17;;;;;;;;;;;;;;;;;;5013221;28;19913;-71
2020/12/17 08:46:43;;;;;;;;;;;;;;;;;;5012418;28;19975;-70
2020/12/17 08:49:09;;;;;;;;;;;;;;;;;;5012567;28;19909;-70
2020/12/17 08:51:35;;;;;;;;;;;;;;;;;;5012431;28;20366;-70
2020/12/17 08:54:01;;;;;;;;;;;;;;;;;;5014953;28;19968;-71
2020/12/17 08:56:27;;;;;;;;;;;;;;;;;;5016661;28;19906;-71
2020/12/17 08:58:53;;;;;;;;;;;;;;;;;;5013532;28;19996;-71
2020/12/17 09:01:19;;;;;;;;;;;;;;;;;;5012183;28;19910;-71
2020/12/17 09:03:45;;;;;;;;;;;;;;;;;;5013535;28;19920;-72
2020/12/17 09:06:11;;;;;;;;;;;;;;;;;;5013279;28;20282;-71
2020/12/17 09:08:37;;;;;;;;;;;;;;;;;;5013285;28;19912;-69
2020/12/17 09:11:02;;;;;;;;;;;;;;;;;;5013409;28;19909;-72
2020/12/17 09:13:31;;;;;;;;;;;;;;;;;;5012764;28;19925;-72
2020/12/17 09:15:58;;;;;;;;;;;;;;;;;;5011822;28;19913;-71
2020/12/17 09:18:24;;;;;;;;;;;;;;;;;;5010331;28;20358;-70
2020/12/17 09:20:49;;;;;;;;;;;;;;;;;;5013070;28;19964;-72
2020/12/17 09:23:15;;;;;;;;;;;;;;;;;;5011717;28;19918;-71
2020/12/17 09:25:41;;;;;;;;;;;;;;;;;;5010991;28;20460;-68
2020/12/17 09:28:07;;;;;;;;;;;;;;;;;;5012816;28;19902;-68
2020/12/17 09:30:34;;;;;;;;;;;;;;;;;;5012394;28;19956;-69
2020/12/17 09:33:00;;;;;;;;;;;;;;;;;;5011761;28;19910;-70
2020/12/17 09:35:26;;;;;;;;;;;;;;;;;;5012692;28;19956;-70
2020/12/17 09:37:52;;;;;;;;;;;;;;;;;;5013031;28;20247;-70
2020/12/17 09:40:18;;;;;;;;;;;;;;;;;;5012866;28;19906;-70
2020/12/17 09:42:45;;;;;;;;;;;;;;;;;;5012266;28;19905;-71
2020/12/17 09:45:11;;;;;;;;;;;;;;;;;;5012399;28;19940;-71
2020/12/17 09:47:37;;;;;;;;;;;;;;;;;;5011262;28;19905;-69
2020/12/17 09:50:03;;;;;;;;;;;;;;;;;;5011415;28;19925;-71
2020/12/17 09:52:29;;;;;;;;;;;;;;;;;;5011351;28;20274;-70
2020/12/17 09:54:55;;;;;;;;;;;;;;;;;;5012098;28;20359;-70
2020/12/17 09:57:21;;;;;;;;;;;;;;;;;;5015326;28;20357;-68
2020/12/17 09:59:47;;;;;;;;;;;;;;;;;;5015403;28;19914;-69
2020/12/17 10:02:13;;;;;;;;;;;;;;;;;;5014219;28;19913;-70
2020/12/17 10:04:39;;;;;;;;;;;;;;;;;;5015438;28;20264;-69
2020/12/17 10:07:05;;;;;;;;;;;;;;;;;;5014234;28;19913;-71
2020/12/17 10:09:31;;;;;;;;;;;;;;;;;;5016545;28;19924;-71
2020/12/17 10:11:57;;;;;;;;;;;;;;;;;;5016723;28;19920;-69
2020/12/17 10:14:23;;;;;;;;;;;;;;;;;;5015612;28;19979;-71
2020/12/17 10:16:49;;;;;;;;;;;;;;;;;;5015514;28;20536;-71
2020/12/17 10:19:22;;;;;;;;;;;;;;;;;;5015331;28;19959;-71
2020/12/17 10:21:48;;;;;;;;;;;;;;;;;;5013265;28;19913;-69
2020/12/17 10:24:14;;;;;;;;;;;;;;;;;;5015070;28;20270;-69
2020/12/17 10:26:40;;;;;;;;;;;;;;;;;;5013645;28;20247;-70
2020/12/17 10:29:06;;;;;;;;;;;;;;;;;;5015060;28;19909;-69
2020/12/17 10:31:32;;;;;;;;;;;;;;;;;;5013808;28;19909;-69
2020/12/17 10:33:58;;;;;;;;;;;;;;;;;;5013446;28;19913;-70
2020/12/17 10:36:24;;;;;;;;;;;;;;;;;;5015142;28;20341;-70
2020/12/17 10:38:50;;;;;;;;;;;;;;;;;;5014900;28;19952;-70
2020/12/17 10:41:16;;;;;;;;;;;;;;;;;;5014930;28;19913;-70
2020/12/17 10:43:42;;;;;;;;;;;;;;;;;;5014296;28;20004;-71
2020/12/17 10:46:08;;;;;;;;;;;;;;;;;;5010607;28;19918;-70
2020/12/17 10:48:34;;;;;;;;;;;;;;;;;;5014838;28;20000;-71
2020/12/17 10:51:00;;;;;;;;;;;;;;;;;;5014747;28;19905;-71
2020/12/17 10:53:26;;;;;;;;;;;;;;;;;;5013468;28;19906;-71
2020/12/17 10:55:52;;;;;;;;;;;;;;;;;;5014749;28;19967;-71
2020/12/17 10:58:18;;;;;;;;;;;;;;;;;;5014888;28;19905;-72
2020/12/17 11:00:43;;;;;;;;;;;;;;;;;;5014993;28;19995;-71
2020/12/17 11:03:10;;;;;;;;;;;;;;;;;;5013652;28;19909;-71
2020/12/17 11:05:36;;;;;;;;;;;;;;;;;;5012832;28;20373;-69
2020/12/17 11:08:02;;;;;;;;;;;;;;;;;;5014315;28;19905;-70
2020/12/17 11:10:27;;;;;;;;;;;;;;;;;;5014278;28;19906;-70
2020/12/17 11:12:54;;;;;;;;;;;;;;;;;;5014231;28;19913;-70
2020/12/17 11:15:19;;;;;;;;;;;;;;;;;;5014385;28;19924;-70
2020/12/17 11:17:45;;;;;;;;;;;;;;;;;;5014257;28;19906;-71
2020/12/17 11:20:13;;;;;;;;;;;;;;;;;;5014369;28;19940;-71
2020/12/17 11:22:39;;;;;;;;;;;;;;;;;;5013130;28;19905;-71
2020/12/17 11:25:05;;;;;;;;;;;;;;;;;;5014167;28;19913;-72
2020/12/17 11:27:31;;;;;;;;;;;;;;;;;;5015778;28;19916;-71
2020/12/17 11:29:57;;;;;;;;;;;;;;;;;;5016224;28;19912;-72
2020/12/17 11:32:23;;;;;;;;;;;;;;;;;;5014086;28;19906;-70
2020/12/17 11:34:50;;;;;;;;;;;;;;;;;;5017725;28;19913;-72
2020/12/17 11:37:16;;;;;;;;;;;;;;;;;;5016659;28;19948;-71
2020/12/17 11:39:42;;;;;;;;;;;;;;;;;;5017328;28;20292;-70
2020/12/17 11:42:08;;;;;;;;;;;;;;;;;;5016431;28;19905;-70
2020/12/17 11:44:34;;;;;;;;;;;;;;;;;;5016265;28;19914;-69
2020/12/17 11:47:00;;;;;;;;;;;;;;;;;;5015841;28;19905;-70
2020/12/17 11:49:26;;;;;;;;;;;;;;;;;;5016164;28;19906;-71
2020/12/17 11:51:52;;;;;;;;;;;;;;;;;;5016003;28;20769;-69
2020/12/17 11:54:18;;;;;;;;;;;;;;;;;;5014512;28;20277;-74
2020/12/17 11:56:43;;;;;;;;;;;;;;;;;;5015834;28;19906;-73
2020/12/17 11:59:09;;;;;;;;;;;;;;;;;;5015399;28;19906;-73
2020/12/17 12:01:35;;;;;;;;;;;;;;;;;;5013810;28;19911;-72
2020/12/17 12:04:01;;;;;;;;;;;;;;;;;;5015208;28;19935;-69
2020/12/17 12:06:27;;;;;;;;;;;;;;;;;;5014903;28;19905;-68
2020/12/17 12:08:53;;;;;;;;;;;;;;;;;;5015129;28;19909;-69
2020/12/17 12:11:19;;;;;;;;;;;;;;;;;;5015407;28;19910;-71
2020/12/17 12:13:45;;;;;;;;;;;;;;;;;;5015027;28;20366;-70
2020/12/17 12:16:11;;;;;;;;;;;;;;;;;;5015501;28;19913;-69
2020/12/17 12:18:37;;;;;;;;;;;;;;;;;;5014017;28;19947;-69
2020/12/17 12:21:03;;;;;;;;;;;;;;;;;;5014789;28;20007;-69
2020/12/17 12:23:29;;;;;;;;;;;;;;;;;;5014628;28;20068;-72
2020/12/17 12:25:54;;;;;;;;;;;;;;;;;;5014591;28;19987;-72
2020/12/17 12:28:20;;;;;;;;;;;;;;;;;;5015309;28;19905;-72
2020/12/17 12:30:46;;;;;;;;;;;;;;;;;;5016663;28;20282;-71
2020/12/17 12:33:13;;;;;;;;;;;;;;;;;;5017117;28;19906;-73
2020/12/17 12:35:39;;;;;;;;;;;;;;;;;;5016059;28;20327;-71
2020/12/17 12:38:05;;;;;;;;;;;;;;;;;;5014523;28;19909;-71
2020/12/17 12:40:32;;;;;;;;;;;;;;;;;;5014068;28;19999;-70
2020/12/17 12:42:58;;;;;;;;;;;;;;;;;;5014219;28;20003;-71
2020/12/17 12:45:24;;;;;;;;;;;;;;;;;;5016563;28;19956;-70
2020/12/17 12:47:50;;;;;;;;;;;;;;;;;;5013865;28;19905;-70
2020/12/17 12:50:16;;;;;;;;;;;;;;;;;;5014137;28;20358;-71
2020/12/17 12:52:42;;;;;;;;;;;;;;;;;;5013766;28;20000;-70
2020/12/17 12:55:08;;;;;;;;;;;;;;;;;;5013601;28;19912;-71
2020/12/17 12:57:35;;;;;;;;;;;;;;;;;;5013631;28;20354;-71
2020/12/17 13:00:01;;;;;;;;;;;;;;;;;;5013368;28;19976;-72
2020/12/17 13:02:27;;;;;;;;;;;;;;;;;;5012798;28;19993;-71
2020/12/17 13:04:53;;;;;;;;;;;;;;;;;;5013574;28;19913;-71
2020/12/17 13:07:18;;;;;;;;;;;;;;;;;;5013468;28;19905;-70
2020/12/17 13:09:44;;;;;;;;;;;;;;;;;;5013457;28;19905;-71
2020/12/17 13:12:11;;;;;;;;;;;;;;;;;;5013081;28;19922;-71
2020/12/17 13:14:37;;;;;;;;;;;;;;;;;;5013557;28;19913;-69
2020/12/17 13:17:07;;;;;;;;;;;;;;;;;;5013633;28;19916;-69
2020/12/17 13:19:34;;;;;;;;;;;;;;;;;;5013481;28;20016;-71
2020/12/17 13:22:00;;;;;;;;;;;;;;;;;;5011800;28;20001;-70
2020/12/17 13:24:26;;;;;;;;;;;;;;;;;;5012705;28;19913;-71
2020/12/17 13:26:52;;;;;;;;;;;;;;;;;;5013405;28;19912;-71
2020/12/17 13:29:18;;;;;;;;;;;;;;;;;;5013135;28;20448;-71
2020/12/17 13:31:44;;;;;;;;;;;;;;;;;;5013484;28;19927;-71
2020/12/17 13:34:10;;;;;;;;;;;;;;;;;;5013308;28;20335;-71
2020/12/17 13:36:36;;;;;;;;;;;;;;;;;;5012058;28;19928;-71
2020/12/17 13:39:02;;;;;;;;;;;;;;;;;;5013135;28;20008;-71
2020/12/17 13:41:27;;;;;;;;;;;;;;;;;;5013101;28;19912;-69
2020/12/17 13:43:53;;;;;;;;;;;;;;;;;;5013141;28;20004;-70
2020/12/17 13:46:20;;;;;;;;;;;;;;;;;;5012910;28;20031;-71
2020/12/17 13:48:46;;;;;;;;;;;;;;;;;;5013085;28;19912;-70
2020/12/17 13:51:12;;;;;;;;;;;;;;;;;;5013128;28;19905;-71
2020/12/17 13:53:38;;;;;;;;;;;;;;;;;;5013790;28;19906;-71
2020/12/17 13:56:04;;;;;;;;;;;;;;;;;;5019373;28;19912;-71
2020/12/17 13:58:30;;;;;;;;;;;;;;;;;;5015073;28;19905;-72
2020/12/17 14:00:56;;;;;;;;;;;;;;;;;;5013586;28;19906;-71
2020/12/17 14:03:21;;;;;;;;;;;;;;;;;;5012981;28;19913;-71
2020/12/17 14:05:47;;;;;;;;;;;;;;;;;;5011855;28;19913;-71
2020/12/17 14:08:13;;;;;;;;;;;;;;;;;;5012829;28;19905;-70
2020/12/17 14:10:39;;;;;;;;;;;;;;;;;;5012985;28;20241;-68
2020/12/17 14:13:05;;;;;;;;;;;;;;;;;;5012610;28;20278;-69
2020/12/17 14:15:31;;;;;;;;;;;;;;;;;;5012669;28;19909;-69
2020/12/17 14:17:57;;;;;;;;;;;;;;;;;;5013347;28;19908;-71
2020/12/17 14:20:23;;;;;;;;;;;;;;;;;;5012787;28;19912;-71
2020/12/17 14:22:49;;;;;;;;;;;;;;;;;;5012599;28;20420;-70
2020/12/17 14:25:15;;;;;;;;;;;;;;;;;;5012680;28;20265;-65
2020/12/17 14:27:41;;;;;;;;;;;;;;;;;;5012634;28;19905;-64
2020/12/17 14:30:07;;;;;;;;;;;;;;;;;;5012667;28;19912;-65
2020/12/17 14:32:33;;;;;;;;;;;;;;;;;;5012483;28;19905;-64
2020/12/17 14:34:59;;;;;;;;;;;;;;;;;;5013021;28;20269;-66
2020/12/17 14:37:25;;;;;;;;;;;;;;;;;;5012379;28;19909;-66
2020/12/17 14:39:51;;;;;;;;;;;;;;;;;;5012589;28;19905;-67
2020/12/17 14:42:17;;;;;;;;;;;;;;;;;;5015554;28;19909;-67
2020/12/17 14:44:43;;;;;;;;;;;;;;;;;;5016350;28;20011;-66
2020/12/17 14:47:09;;;;;;;;;;;;;;;;;;5017129;28;19944;-67
2020/12/17 14:49:35;;;;;;;;;;;;;;;;;;5016447;28;19901;-68
2020/12/17 14:52:01;;;;;;;;;;;;;;;;;;5016222;28;20281;-67
2020/12/17 14:54:27;;;;;;;;;;;;;;;;;;5015878;28;19956;-67
2020/12/17 14:56:53;;;;;;;;;;;;;;;;;;5016453;28;19960;-66
2020/12/17 14:59:19;;;;;;;;;;;;;;;;;;5016048;28;20358;-66
2020/12/17 15:01:45;;;;;;;;;;;;;;;;;;5015942;28;19905;-65
2020/12/17 15:04:11;;;;;;;;;;;;;;;;;;5016203;28;19992;-68
2020/12/17 15:06:37;;;;;;;;;;;;;;;;;;5016054;28;19952;-68
2020/12/17 15:09:03;;;;;;;;;;;;;;;;;;5015819;28;20504;-68
2020/12/17 15:11:28;;;;;;;;;;;;;;;;;;5016012;28;19906;-67
2020/12/17 15:13:54;;;;;;;;;;;;;;;;;;5017265;28;19920;-67
2020/12/17 15:16:20;;;;;;;;;;;;;;;;;;5016236;28;20353;-64
2020/12/17 15:18:48;;;;;;;;;;;;;;;;;;5014251;28;19912;-67
2020/12/17 15:21:14;;;;;;;;;;;;;;;;;;5015098;28;20364;-63
2020/12/17 15:23:40;;;;;;;;;;;;;;;;;;5014702;28;19917;-65
2020/12/17 15:26:06;;;;;;;;;;;;;;;;;;5013579;28;20016;-65
2020/12/17 15:28:31;;;;;;;;;;;;;;;;;;5012347;28;19929;-64
2020/12/17 15:30:57;;;;;;;;;;;;;;;;;;5014053;28;19910;-66
2020/12/17 15:33:23;;;;;;;;;;;;;;;;;;5015156;28;19905;-66
2020/12/17 15:35:49;;;;;;;;;;;;;;;;;;5015230;28;19909;-64
2020/12/17 15:38:15;;;;;;;;;;;;;;;;;;5015104;28;20008;-65
2020/12/17 15:40:41;;;;;;;;;;;;;;;;;;5013880;28;19927;-63
2020/12/17 15:43:07;;;;;;;;;;;;;;;;;;5013694;28;19965;-65
2020/12/17 15:45:33;;;;;;;;;;;;;;;;;;5015383;28;20350;-64
2020/12/17 15:47:59;;;;;;;;;;;;;;;;;;5016657;28;20334;-66
2020/12/17 15:50:25;;;;;;;;;;;;;;;;;;5016143;28;20405;-66
2020/12/17 15:52:51;;;;;;;;;;;;;;;;;;5014345;28;19905;-62
2020/12/17 15:55:17;;;;;;;;;;;;;;;;;;5016007;28;19910;-64
2020/12/17 15:57:43;;;;;;;;;;;;;;;;;;5014472;28;19960;-68
2020/12/17 16:00:08;;;;;;;;;;;;;;;;;;5014270;28;20380;-60
2020/12/17 16:02:34;;;;;;;;;;;;;;;;;;5015813;28;19955;-59
2020/12/17 16:05:00;;;;;;;;;;;;;;;;;;5014905;28;20009;-59
2020/12/17 16:07:32;;;;;;;;;;;;;;;;;;5016072;28;19916;-63
2020/12/17 16:09:58;;;;;;;;;;;;;;;;;;5015142;28;19905;-62
2020/12/17 16:12:24;;;;;;;;;;;;;;;;;;5015415;28;20329;-63
2020/12/17 16:14:50;;;;;;;;;;;;;;;;;;5015488;28;19913;-60
2020/12/17 16:17:16;;;;;;;;;;;;;;;;;;5014903;28;19909;-59
2020/12/17 16:19:42;;;;;;;;;;;;;;;;;;5014782;28;20291;-60
2020/12/17 16:22:08;;;;;;;;;;;;;;;;;;5015234;28;19905;-60
2020/12/17 16:24:34;;;;;;;;;;;;;;;;;;5015081;28;19921;-60
2020/12/17 16:27:00;;;;;;;;;;;;;;;;;;5014867;28;19916;-60
2020/12/17 16:29:26;;;;;;;;;;;;;;;;;;5015267;28;19915;-60
2020/12/17 16:31:52;;;;;;;;;;;;;;;;;;5015185;28;19912;-62
2020/12/17 16:34:18;;;;;;;;;;;;;;;;;;5015351;28;20346;-63
2020/12/17 16:36:44;;;;;;;;;;;;;;;;;;5014958;28;20350;-62